Time,TemperatureF,DewpointF,PressureIn,WindDirection,WindDirectionDegrees,WindSpeedMPH,WindSpeedGustMPH,Humidity,HourlyPrecipIn,Conditions,Clouds,dailyrainin,SolarRadiationWatts/m^2,SoftwareType,DateUTC
2013-02-23 00:00:00,25.0,23.0,-100.00,NE,45,1.0,-999.0,94,-99.99,,,-99.99,0.000000,,2013-02-23 05:00:00,
2013-02-23 00:42:00,25.0,23.0,-100.00,NE,45,1.0,-999.0,94,-99.99,,,-99.99,0.000000,,2013-02-23 05:42:00,
2013-02-23 00:52:00,25.0,23.0,-100.00,NE,45,1.0,-999.0,94,-99.99,,,-99.99,0.000000,,2013-02-23 05:52:00,
2013-02-23 01:00:00,25.0,23.0,-100.00,NE,45,2.0,-999.0,93,-99.99,,,-99.99,0.000000,,2013-02-23 06:00:00,
2013-02-23 01:42:00,25.0,23.0,-100.00,NE,45,2.0,-999.0,93,-99.99,,,-99.99,0.000000,,2013-02-23 06:42:00,
2013-02-23 01:52:00,25.0,23.0,-100.00,NE,45,2.0,-999.0,93,-99.99,,,-99.99,0.000000,,2013-02-23 06:52:00,
2013-02-23 02:00:00,25.0,23.0,-100.00,NE,45,0.0,-999.0,93,-99.99,,,-99.99,0.000000,,2013-02-23 07:00:00,
2013-02-23 02:42:00,25.0,23.0,-100.00,NE,45,0.0,-999.0,93,-99.99,,,-99.99,0.000000,,2013-02-23 07:42:00,
2013-02-23 02:52:00,25.0,23.0,-100.00,NE,45,0.0,-999.0,93,-99.99,,,-99.99,0.000000,,2013-02-23 07:52:00,
2013-02-23 03:00:00,25.0,24.0,-100.00,NE,45,0.0,-999.0,94,-99.99,,,-99.99,0.000000,,2013-02-23 08:00:00,
2013-02-23 03:42:00,25.0,24.0,-100.00,NE,45,0.0,-999.0,94,-99.99,,,-99.99,0.000000,,2013-02-23 08:42:00,
2013-02-23 03:53:00,25.0,24.0,-100.00,NE,45,0.0,-999.0,94,-99.99,,,-99.99,0.000000,,2013-02-23 08:53:00,
2013-02-23 04:00:00,25.0,24.0,-100.00,ENE,67,0.0,-999.0,95,-99.99,,,-99.99,0.000000,,2013-02-23 09:00:00,
2013-02-23 04:42:00,25.0,24.0,-100.00,ENE,67,0.0,-999.0,95,-99.99,,,-99.99,0.000000,,2013-02-23 09:42:00,
2013-02-23 04:52:00,25.0,24.0,-100.00,ENE,67,0.0,-999.0,95,-99.99,,,-99.99,0.000000,,2013-02-23 09:52:00,
2013-02-23 05:00:00,26.0,25.0,-100.00,ENE,67,1.0,-999.0,95,-99.99,,,-99.99,0.000000,,2013-02-23 10:00:00,
2013-02-23 05:42:00,26.0,25.0,-100.00,ENE,67,1.0,-999.0,95,-99.99,,,-99.99,0.000000,,2013-02-23 10:42:00,
2013-02-23 05:52:00,26.0,25.0,-100.00,ENE,67,1.0,-999.0,95,-99.99,,,-99.99,0.000000,,2013-02-23 10:52:00,
2013-02-23 06:00:00,27.0,25.0,-100.00,ENE,67,0.0,-999.0,94,-99.99,,,-99.99,0.000000,,2013-02-23 11:00:00,
2013-02-23 06:42:00,27.0,25.0,-100.00,ENE,67,0.0,-999.0,94,-99.99,,,-99.99,0.000000,,2013-02-23 11:42:00,
2013-02-23 06:53:00,27.0,25.0,-100.00,ENE,67,0.0,-999.0,94,-99.99,,,-99.99,0.000000,,2013-02-23 11:53:00,
2013-02-23 07:00:00,26.0,25.0,-100.00,SSE,157,0.0,-999.0,95,-99.99,,,-99.99,0.000000,,2013-02-23 12:00:00,
2013-02-23 07:42:00,26.0,25.0,-100.00,SSE,157,0.0,-999.0,95,-99.99,,,-99.99,0.000000,,2013-02-23 12:42:00,
2013-02-23 07:53:00,26.0,25.0,-100.00,SSE,157,0.0,-999.0,95,-99.99,,,-99.99,0.000000,,2013-02-23 12:53:00,
2013-02-23 08:00:00,26.0,26.0,-100.00,SSE,157,0.0,-999.0,96,-99.99,,,-99.99,2.320000,,2013-02-23 13:00:00,
2013-02-23 08:42:00,26.0,26.0,-100.00,SSE,157,0.0,-999.0,96,-99.99,,,-99.99,2.320000,,2013-02-23 13:42:00,
2013-02-23 08:52:00,26.0,26.0,-100.00,SSE,157,0.0,-999.0,96,-99.99,,,-99.99,2.320000,,2013-02-23 13:52:00,
2013-02-23 09:00:00,27.0,26.0,-100.00,South,180,2.0,-999.0,95,-99.99,,,-99.99,23.200001,,2013-02-23 14:00:00,
2013-02-23 09:42:00,27.0,26.0,-100.00,South,180,2.0,-999.0,95,-99.99,,,-99.99,23.200001,,2013-02-23 14:42:00,
2013-02-23 09:52:00,27.0,26.0,-100.00,South,180,2.0,-999.0,95,-99.99,,,-99.99,23.200001,,2013-02-23 14:52:00,
2013-02-23 10:00:00,28.0,26.0,-100.00,South,180,3.0,-999.0,92,-99.99,,,-99.99,47.560001,,2013-02-23 15:00:00,
2013-02-23 10:42:00,28.0,26.0,-100.00,South,180,3.0,-999.0,92,-99.99,,,-99.99,47.560001,,2013-02-23 15:42:00,
2013-02-23 10:52:00,28.0,26.0,-100.00,South,180,3.0,-999.0,92,-99.99,,,-99.99,47.560001,,2013-02-23 15:52:00,
2013-02-23 11:00:00,28.0,26.0,-100.00,SSE,157,4.0,-999.0,89,-99.99,,,-99.99,82.360001,,2013-02-23 16:00:00,
2013-02-23 11:42:00,28.0,26.0,-100.00,SSE,157,4.0,-999.0,89,-99.99,,,-99.99,82.360001,,2013-02-23 16:42:00,
2013-02-23 11:52:00,28.0,26.0,-100.00,SSE,157,4.0,-999.0,89,-99.99,,,-99.99,82.360001,,2013-02-23 16:52:00,
2013-02-23 12:00:00,28.0,26.0,-100.00,SSE,157,4.0,-999.0,90,-99.99,,,-99.99,82.360001,,2013-02-23 17:00:00,
2013-02-23 12:42:00,28.0,26.0,-100.00,SSE,157,4.0,-999.0,90,-99.99,,,-99.99,82.360001,,2013-02-23 17:42:00,
2013-02-23 12:52:00,28.0,26.0,-100.00,SSE,157,4.0,-999.0,90,-99.99,,,-99.99,82.360001,,2013-02-23 17:52:00,
2013-02-23 13:00:00,28.0,25.0,-100.00,SE,135,5.0,-999.0,88,-99.99,,,-99.99,112.519997,,2013-02-23 18:00:00,
2013-02-23 13:42:00,28.0,25.0,-100.00,SE,135,5.0,-999.0,88,-99.99,,,-99.99,112.519997,,2013-02-23 18:42:00,
2013-02-23 13:52:00,28.0,25.0,-100.00,SE,135,5.0,-999.0,88,-99.99,,,-99.99,112.519997,,2013-02-23 18:52:00,
2013-02-23 14:00:00,28.0,25.0,-100.00,SSE,157,5.0,-999.0,85,0.05,,,-99.99,132.240005,,2013-02-23 19:00:00,
2013-02-23 14:42:00,28.0,25.0,-100.00,SSE,157,5.0,-999.0,85,0.05,,,-99.99,132.240005,,2013-02-23 19:42:00,
2013-02-23 14:52:00,28.0,25.0,-100.00,SSE,157,5.0,-999.0,85,0.05,,,-99.99,132.240005,,2013-02-23 19:52:00,
2013-02-23 15:00:00,28.0,25.0,-100.00,SE,135,5.0,-999.0,86,0.05,,,-99.99,170.520004,,2013-02-23 20:00:00,
2013-02-23 15:42:00,28.0,25.0,-100.00,SE,135,5.0,-999.0,86,0.05,,,-99.99,170.520004,,2013-02-23 20:42:00,
2013-02-23 15:53:00,28.0,25.0,-100.00,SE,135,5.0,-999.0,86,0.05,,,-99.99,170.520004,,2013-02-23 20:53:00,
2013-02-23 16:00:00,28.0,25.0,-100.00,SE,135,5.0,-999.0,88,-99.99,,,-99.99,121.800003,,2013-02-23 21:00:00,
2013-02-23 16:42:00,28.0,25.0,-100.00,SE,135,5.0,-999.0,88,-99.99,,,-99.99,121.800003,,2013-02-23 21:42:00,
2013-02-23 16:52:00,28.0,25.0,-100.00,SE,135,5.0,-999.0,88,-99.99,,,-99.99,121.800003,,2013-02-23 21:52:00,
2013-02-23 17:00:00,28.0,23.0,-100.00,SE,135,4.0,-999.0,82,-99.99,,,-99.99,122.959999,,2013-02-23 22:00:00,
2013-02-23 17:42:00,28.0,23.0,-100.00,SE,135,4.0,-999.0,82,-99.99,,,-99.99,122.959999,,2013-02-23 22:42:00,
2013-02-23 17:52:00,28.0,23.0,-100.00,SE,135,4.0,-999.0,82,-99.99,,,-99.99,122.959999,,2013-02-23 22:52:00,
2013-02-23 18:00:00,28.0,22.0,-100.00,SE,135,4.0,-999.0,79,0.01,,,-99.99,42.919998,,2013-02-23 23:00:00,
2013-02-23 18:42:00,28.0,22.0,-100.00,SE,135,4.0,-999.0,79,0.01,,,-99.99,42.919998,,2013-02-23 23:42:00,
2013-02-23 18:52:00,28.0,22.0,-100.00,SE,135,4.0,-999.0,79,0.01,,,-99.99,42.919998,,2013-02-23 23:52:00,
2013-02-23 19:00:00,28.0,22.0,-100.00,ESE,112,1.0,-999.0,80,-99.99,,,-99.99,1.160000,,2013-02-24 00:00:00,
2013-02-23 19:42:00,28.0,22.0,-100.00,ESE,112,1.0,-999.0,80,-99.99,,,-99.99,1.160000,,2013-02-24 00:42:00,
2013-02-23 19:52:00,28.0,22.0,-100.00,ESE,112,1.0,-999.0,80,-99.99,,,-99.99,1.160000,,2013-02-24 00:52:00,
2013-02-23 20:00:00,27.0,24.0,-100.00,SE,135,0.0,-999.0,87,-99.99,,,-99.99,0.000000,,2013-02-24 01:00:00,
2013-02-23 20:42:00,27.0,24.0,-100.00,SE,135,0.0,-999.0,87,-99.99,,,-99.99,0.000000,,2013-02-24 01:42:00,
2013-02-23 20:52:00,27.0,24.0,-100.00,SE,135,0.0,-999.0,87,-99.99,,,-99.99,0.000000,,2013-02-24 01:52:00,
2013-02-23 21:00:00,26.0,25.0,-100.00,SE,135,0.0,-999.0,94,-99.99,,,-99.99,0.000000,,2013-02-24 02:00:00,
2013-02-23 21:42:00,26.0,25.0,-100.00,SE,135,0.0,-999.0,94,-99.99,,,-99.99,0.000000,,2013-02-24 02:42:00,
2013-02-23 21:52:00,26.0,25.0,-100.00,SE,135,0.0,-999.0,94,-99.99,,,-99.99,0.000000,,2013-02-24 02:52:00,
2013-02-23 22:00:00,26.0,25.0,-100.00,ESE,112,0.0,-999.0,95,-99.99,,,-99.99,0.000000,,2013-02-24 03:00:00,
2013-02-23 22:42:00,26.0,25.0,-100.00,ESE,112,0.0,-999.0,95,-99.99,,,-99.99,0.000000,,2013-02-24 03:42:00,
2013-02-23 22:52:00,26.0,25.0,-100.00,ESE,112,0.0,-999.0,95,-99.99,,,-99.99,0.000000,,2013-02-24 03:52:00,
2013-02-23 23:00:00,26.0,25.0,-100.00,ENE,67,0.0,-999.0,95,-99.99,,,-99.99,0.000000,,2013-02-24 04:00:00,
2013-02-23 23:42:00,26.0,25.0,-100.00,ENE,67,0.0,-999.0,95,-99.99,,,-99.99,0.000000,,2013-02-24 04:42:00,
2013-02-23 23:52:00,26.0,25.0,-100.00,ENE,67,0.0,-999.0,95,-99.99,,,-99.99,0.000000,,2013-02-24 04:52:00,